sensor_id;sensor_type;location;lat;lon;timestamp;P1;durP1;ratioP1;P2;durP2;ratioP2
62927;SDS011;51070;52.236;-0.892;2022-07-23T00:02:25;4.10;;;2.20;;
62927;SDS011;51070;52.236;-0.892;2022-07-23T00:04:51;3.00;;;1.50;;
62927;SDS011;51070;52.236;-0.892;2022-07-23T00:07:16;4.70;;;1.60;;
62927;SDS011;51070;52.236;-0.892;2022-07-23T00:09:42;5.00;;;1.60;;
62927;SDS011;51070;52.236;-0.892;2022-07-23T00:12:08;5.00;;;2.40;;
62927;SDS011;51070;52.236;-0.892;2022-07-23T00:14:33;3.40;;;1.70;;
62927;SDS011;51070;52.236;-0.892;2022-07-23T00:16:59;2.70;;;1.70;;
62927;SDS011;51070;52.236;-0.892;2022-07-23T00:19:24;3.10;;;1.70;;
62927;SDS011;51070;52.236;-0.892;2022-07-23T00:21:50;3.30;;;1.70;;
62927;SDS011;51070;52.236;-0.892;2022-07-23T00:24:15;1.60;;;1.40;;
62927;SDS011;51070;52.236;-0.892;2022-07-23T00:26:41;3.30;;;1.70;;
62927;SDS011;51070;52.236;-0.892;2022-07-23T00:29:06;3.20;;;1.90;;
62927;SDS011;51070;52.236;-0.892;2022-07-23T00:31:31;5.20;;;1.90;;
62927;SDS011;51070;52.236;-0.892;2022-07-23T00:33:57;2.70;;;1.60;;
62927;SDS011;51070;52.236;-0.892;2022-07-23T00:36:25;4.00;;;1.90;;
62927;SDS011;51070;52.236;-0.892;2022-07-23T00:38:51;3.10;;;1.90;;
62927;SDS011;51070;52.236;-0.892;2022-07-23T00:41:17;3.50;;;1.70;;
62927;SDS011;51070;52.236;-0.892;2022-07-23T00:43:42;4.50;;;1.90;;
62927;SDS011;51070;52.236;-0.892;2022-07-23T00:46:08;3.90;;;1.60;;
62927;SDS011;51070;52.236;-0.892;2022-07-23T00:48:33;3.80;;;1.70;;
62927;SDS011;51070;52.236;-0.892;2022-07-23T00:50:59;3.30;;;1.70;;
62927;SDS011;51070;52.236;-0.892;2022-07-23T00:53:24;3.00;;;1.90;;
62927;SDS011;51070;52.236;-0.892;2022-07-23T00:55:50;5.20;;;2.30;;
62927;SDS011;51070;52.236;-0.892;2022-07-23T00:58:16;4.50;;;2.20;;
62927;SDS011;51070;52.236;-0.892;2022-07-23T01:00:42;2.60;;;1.60;;
62927;SDS011;51070;52.236;-0.892;2022-07-23T01:03:07;3.40;;;1.70;;
62927;SDS011;51070;52.236;-0.892;2022-07-23T01:05:33;4.40;;;2.20;;
62927;SDS011;51070;52.236;-0.892;2022-07-23T01:07:59;2.40;;;1.80;;
62927;SDS011;51070;52.236;-0.892;2022-07-23T01:10:25;3.40;;;2.00;;
62927;SDS011;51070;52.236;-0.892;2022-07-23T01:13:00;2.50;;;1.80;;
62927;SDS011;51070;52.236;-0.892;2022-07-23T01:15:29;3.30;;;1.90;;
62927;SDS011;51070;52.236;-0.892;2022-07-23T01:17:56;4.70;;;1.70;;
62927;SDS011;51070;52.236;-0.892;2022-07-23T01:20:22;2.80;;;2.10;;
62927;SDS011;51070;52.236;-0.892;2022-07-23T01:22:48;4.50;;;2.10;;
62927;SDS011;51070;52.236;-0.892;2022-07-23T01:25:14;3.80;;;2.30;;
62927;SDS011;51070;52.236;-0.892;2022-07-23T01:27:39;3.80;;;2.40;;
62927;SDS011;51070;52.236;-0.892;2022-07-23T01:30:06;4.20;;;2.20;;
62927;SDS011;51070;52.236;-0.892;2022-07-23T01:32:32;4.90;;;2.20;;
62927;SDS011;51070;52.236;-0.892;2022-07-23T01:34:57;4.00;;;2.00;;
62927;SDS011;51070;52.236;-0.892;2022-07-23T01:37:22;5.20;;;1.80;;
62927;SDS011;51070;52.236;-0.892;2022-07-23T01:39:48;5.70;;;2.00;;
62927;SDS011;51070;52.236;-0.892;2022-07-23T01:42:14;5.50;;;2.40;;
62927;SDS011;51070;52.236;-0.892;2022-07-23T01:44:39;4.90;;;2.30;;
62927;SDS011;51070;52.236;-0.892;2022-07-23T01:47:05;5.30;;;2.80;;
62927;SDS011;51070;52.236;-0.892;2022-07-23T01:49:31;3.10;;;2.30;;
62927;SDS011;51070;52.236;-0.892;2022-07-23T01:51:56;2.80;;;2.40;;
62927;SDS011;51070;52.236;-0.892;2022-07-23T01:54:31;2.60;;;2.10;;
62927;SDS011;51070;52.236;-0.892;2022-07-23T01:56:58;3.10;;;2.30;;
62927;SDS011;51070;52.236;-0.892;2022-07-23T01:59:24;4.70;;;2.20;;
62927;SDS011;51070;52.236;-0.892;2022-07-23T02:01:51;3.20;;;2.20;;
62927;SDS011;51070;52.236;-0.892;2022-07-23T02:04:17;3.50;;;1.90;;
62927;SDS011;51070;52.236;-0.892;2022-07-23T02:06:44;4.60;;;2.40;;
62927;SDS011;51070;52.236;-0.892;2022-07-23T02:09:09;3.30;;;2.10;;
62927;SDS011;51070;52.236;-0.892;2022-07-23T02:11:35;5.30;;;2.80;;
62927;SDS011;51070;52.236;-0.892;2022-07-23T02:14:01;3.50;;;2.30;;
62927;SDS011;51070;52.236;-0.892;2022-07-23T02:16:27;4.30;;;2.90;;
62927;SDS011;51070;52.236;-0.892;2022-07-23T02:18:52;4.10;;;1.90;;
62927;SDS011;51070;52.236;-0.892;2022-07-23T02:21:17;2.70;;;2.20;;
62927;SDS011;51070;52.236;-0.892;2022-07-23T02:23:43;6.10;;;2.90;;
62927;SDS011;51070;52.236;-0.892;2022-07-23T02:26:08;5.70;;;2.70;;
62927;SDS011;51070;52.236;-0.892;2022-07-23T02:28:34;4.40;;;2.90;;
62927;SDS011;51070;52.236;-0.892;2022-07-23T02:30:59;6.10;;;3.30;;
62927;SDS011;51070;52.236;-0.892;2022-07-23T02:33:25;6.70;;;2.90;;
62927;SDS011;51070;52.236;-0.892;2022-07-23T02:35:50;5.10;;;2.40;;
62927;SDS011;51070;52.236;-0.892;2022-07-23T02:38:16;5.10;;;2.60;;
62927;SDS011;51070;52.236;-0.892;2022-07-23T02:40:41;3.90;;;2.50;;
62927;SDS011;51070;52.236;-0.892;2022-07-23T02:43:07;3.40;;;2.80;;
62927;SDS011;51070;52.236;-0.892;2022-07-23T02:45:32;6.60;;;3.30;;
62927;SDS011;51070;52.236;-0.892;2022-07-23T02:47:57;6.30;;;2.90;;
62927;SDS011;51070;52.236;-0.892;2022-07-23T02:50:23;4.90;;;3.20;;
62927;SDS011;51070;52.236;-0.892;2022-07-23T02:52:49;4.50;;;2.90;;
62927;SDS011;51070;52.236;-0.892;2022-07-23T02:55:15;3.80;;;2.70;;
62927;SDS011;51070;52.236;-0.892;2022-07-23T02:57:40;3.70;;;2.40;;
62927;SDS011;51070;52.236;-0.892;2022-07-23T03:00:06;9.70;;;3.40;;
62927;SDS011;51070;52.236;-0.892;2022-07-23T03:02:32;4.20;;;2.80;;
62927;SDS011;51070;52.236;-0.892;2022-07-23T03:04:58;8.40;;;3.50;;
62927;SDS011;51070;52.236;-0.892;2022-07-23T03:07:23;5.70;;;3.00;;
62927;SDS011;51070;52.236;-0.892;2022-07-23T03:09:49;5.90;;;3.10;;
62927;SDS011;51070;52.236;-0.892;2022-07-23T03:12:14;3.60;;;2.90;;
62927;SDS011;51070;52.236;-0.892;2022-07-23T03:14:40;5.80;;;3.10;;
62927;SDS011;51070;52.236;-0.892;2022-07-23T03:17:06;3.70;;;2.60;;
62927;SDS011;51070;52.236;-0.892;2022-07-23T03:19:32;7.00;;;3.50;;
62927;SDS011;51070;52.236;-0.892;2022-07-23T03:21:58;4.80;;;3.00;;
62927;SDS011;51070;52.236;-0.892;2022-07-23T03:24:23;5.90;;;3.20;;
62927;SDS011;51070;52.236;-0.892;2022-07-23T03:27:09;5.60;;;3.60;;
62927;SDS011;51070;52.236;-0.892;2022-07-23T03:29:34;6.20;;;2.90;;
62927;SDS011;51070;52.236;-0.892;2022-07-23T03:32:02;5.40;;;2.60;;
62927;SDS011;51070;52.236;-0.892;2022-07-23T03:34:28;4.40;;;2.80;;
62927;SDS011;51070;52.236;-0.892;2022-07-23T03:36:54;6.00;;;3.00;;
62927;SDS011;51070;52.236;-0.892;2022-07-23T03:39:19;5.40;;;3.30;;
62927;SDS011;51070;52.236;-0.892;2022-07-23T03:41:45;4.10;;;2.50;;
62927;SDS011;51070;52.236;-0.892;2022-07-23T03:44:10;3.80;;;2.80;;
62927;SDS011;51070;52.236;-0.892;2022-07-23T03:46:36;5.40;;;3.40;;
62927;SDS011;51070;52.236;-0.892;2022-07-23T03:49:01;4.50;;;2.80;;
62927;SDS011;51070;52.236;-0.892;2022-07-23T03:51:27;4.30;;;3.00;;
62927;SDS011;51070;52.236;-0.892;2022-07-23T03:53:53;4.60;;;2.90;;
62927;SDS011;51070;52.236;-0.892;2022-07-23T03:56:19;5.00;;;3.10;;
62927;SDS011;51070;52.236;-0.892;2022-07-23T03:58:45;4.80;;;3.30;;
62927;SDS011;51070;52.236;-0.892;2022-07-23T04:01:11;4.10;;;2.90;;
62927;SDS011;51070;52.236;-0.892;2022-07-23T04:03:37;5.10;;;2.80;;
62927;SDS011;51070;52.236;-0.892;2022-07-23T04:06:02;3.80;;;2.70;;
62927;SDS011;51070;52.236;-0.892;2022-07-23T04:08:28;7.80;;;3.80;;
62927;SDS011;51070;52.236;-0.892;2022-07-23T04:10:54;4.80;;;3.20;;
62927;SDS011;51070;52.236;-0.892;2022-07-23T04:13:20;4.20;;;2.80;;
62927;SDS011;51070;52.236;-0.892;2022-07-23T04:15:46;5.10;;;2.90;;
62927;SDS011;51070;52.236;-0.892;2022-07-23T04:18:11;4.90;;;3.00;;
62927;SDS011;51070;52.236;-0.892;2022-07-23T04:20:37;4.40;;;3.10;;
62927;SDS011;51070;52.236;-0.892;2022-07-23T04:23:02;5.10;;;3.50;;
62927;SDS011;51070;52.236;-0.892;2022-07-23T04:25:28;8.60;;;4.10;;
62927;SDS011;51070;52.236;-0.892;2022-07-23T04:27:53;6.80;;;3.80;;
62927;SDS011;51070;52.236;-0.892;2022-07-23T04:30:19;4.80;;;3.50;;
62927;SDS011;51070;52.236;-0.892;2022-07-23T04:32:44;6.20;;;3.50;;
62927;SDS011;51070;52.236;-0.892;2022-07-23T04:35:10;5.30;;;3.00;;
62927;SDS011;51070;52.236;-0.892;2022-07-23T04:37:35;5.30;;;3.00;;
62927;SDS011;51070;52.236;-0.892;2022-07-23T04:40:01;8.00;;;3.30;;
62927;SDS011;51070;52.236;-0.892;2022-07-23T04:42:26;5.20;;;3.70;;
62927;SDS011;51070;52.236;-0.892;2022-07-23T04:44:52;7.00;;;3.40;;
62927;SDS011;51070;52.236;-0.892;2022-07-23T04:47:17;5.50;;;3.60;;
62927;SDS011;51070;52.236;-0.892;2022-07-23T04:49:42;4.60;;;3.30;;
62927;SDS011;51070;52.236;-0.892;2022-07-23T04:52:08;5.40;;;3.40;;
62927;SDS011;51070;52.236;-0.892;2022-07-23T04:54:33;5.60;;;3.80;;
62927;SDS011;51070;52.236;-0.892;2022-07-23T04:56:59;10.40;;;5.10;;
62927;SDS011;51070;52.236;-0.892;2022-07-23T04:59:24;6.60;;;4.40;;
62927;SDS011;51070;52.236;-0.892;2022-07-23T05:01:50;7.20;;;5.10;;
62927;SDS011;51070;52.236;-0.892;2022-07-23T05:04:15;14.10;;;5.00;;
62927;SDS011;51070;52.236;-0.892;2022-07-23T05:06:41;8.10;;;5.30;;
62927;SDS011;51070;52.236;-0.892;2022-07-23T05:09:06;9.70;;;4.50;;
62927;SDS011;51070;52.236;-0.892;2022-07-23T05:11:32;8.10;;;4.80;;
62927;SDS011;51070;52.236;-0.892;2022-07-23T05:13:57;10.30;;;4.70;;
62927;SDS011;51070;52.236;-0.892;2022-07-23T05:16:22;9.60;;;4.50;;
62927;SDS011;51070;52.236;-0.892;2022-07-23T05:18:48;8.80;;;4.80;;
62927;SDS011;51070;52.236;-0.892;2022-07-23T05:21:13;7.00;;;4.70;;
62927;SDS011;51070;52.236;-0.892;2022-07-23T05:23:39;10.40;;;5.40;;
62927;SDS011;51070;52.236;-0.892;2022-07-23T05:26:04;10.50;;;4.90;;
62927;SDS011;51070;52.236;-0.892;2022-07-23T05:28:30;10.20;;;5.10;;
62927;SDS011;51070;52.236;-0.892;2022-07-23T05:30:55;12.40;;;6.70;;
62927;SDS011;51070;52.236;-0.892;2022-07-23T05:33:21;11.30;;;6.80;;
62927;SDS011;51070;52.236;-0.892;2022-07-23T05:35:46;9.20;;;6.40;;
62927;SDS011;51070;52.236;-0.892;2022-07-23T05:38:12;15.80;;;6.80;;
62927;SDS011;51070;52.236;-0.892;2022-07-23T05:40:37;11.60;;;7.30;;
62927;SDS011;51070;52.236;-0.892;2022-07-23T05:43:03;12.40;;;7.00;;
62927;SDS011;51070;52.236;-0.892;2022-07-23T05:45:28;13.90;;;7.70;;
62927;SDS011;51070;52.236;-0.892;2022-07-23T05:47:54;12.40;;;7.20;;
62927;SDS011;51070;52.236;-0.892;2022-07-23T05:50:19;13.80;;;7.70;;
62927;SDS011;51070;52.236;-0.892;2022-07-23T05:52:46;17.70;;;6.50;;
62927;SDS011;51070;52.236;-0.892;2022-07-23T05:55:12;12.60;;;6.20;;
62927;SDS011;51070;52.236;-0.892;2022-07-23T05:57:38;10.30;;;7.70;;
62927;SDS011;51070;52.236;-0.892;2022-07-23T06:00:05;12.70;;;7.90;;
62927;SDS011;51070;52.236;-0.892;2022-07-23T06:02:31;13.70;;;8.20;;
62927;SDS011;51070;52.236;-0.892;2022-07-23T06:04:57;13.80;;;6.70;;
62927;SDS011;51070;52.236;-0.892;2022-07-23T06:07:22;12.90;;;7.20;;
62927;SDS011;51070;52.236;-0.892;2022-07-23T06:09:48;12.60;;;7.30;;
62927;SDS011;51070;52.236;-0.892;2022-07-23T06:12:14;14.20;;;7.20;;
62927;SDS011;51070;52.236;-0.892;2022-07-23T06:14:41;9.40;;;5.30;;
62927;SDS011;51070;52.236;-0.892;2022-07-23T06:17:07;14.00;;;8.50;;
62927;SDS011;51070;52.236;-0.892;2022-07-23T06:19:33;17.20;;;9.00;;
62927;SDS011;51070;52.236;-0.892;2022-07-23T06:21:59;11.70;;;7.80;;
62927;SDS011;51070;52.236;-0.892;2022-07-23T06:24:24;13.00;;;9.00;;
62927;SDS011;51070;52.236;-0.892;2022-07-23T06:26:50;13.60;;;9.10;;
62927;SDS011;51070;52.236;-0.892;2022-07-23T06:29:15;16.30;;;9.00;;
62927;SDS011;51070;52.236;-0.892;2022-07-23T06:31:41;18.00;;;10.30;;
62927;SDS011;51070;52.236;-0.892;2022-07-23T06:34:06;15.40;;;10.60;;
62927;SDS011;51070;52.236;-0.892;2022-07-23T06:36:31;13.50;;;8.00;;
62927;SDS011;51070;52.236;-0.892;2022-07-23T06:38:57;12.90;;;10.30;;
62927;SDS011;51070;52.236;-0.892;2022-07-23T06:41:22;18.90;;;10.30;;
62927;SDS011;51070;52.236;-0.892;2022-07-23T06:43:48;15.20;;;9.90;;
62927;SDS011;51070;52.236;-0.892;2022-07-23T06:46:14;15.20;;;9.70;;
62927;SDS011;51070;52.236;-0.892;2022-07-23T06:48:40;15.50;;;10.70;;
62927;SDS011;51070;52.236;-0.892;2022-07-23T06:51:05;16.80;;;11.80;;
62927;SDS011;51070;52.236;-0.892;2022-07-23T06:53:31;14.90;;;11.10;;
62927;SDS011;51070;52.236;-0.892;2022-07-23T06:55:56;16.10;;;10.30;;
62927;SDS011;51070;52.236;-0.892;2022-07-23T06:58:22;14.00;;;11.00;;
62927;SDS011;51070;52.236;-0.892;2022-07-23T07:00:47;17.20;;;10.60;;
62927;SDS011;51070;52.236;-0.892;2022-07-23T07:03:13;13.90;;;10.40;;
62927;SDS011;51070;52.236;-0.892;2022-07-23T07:05:38;19.00;;;11.20;;
62927;SDS011;51070;52.236;-0.892;2022-07-23T07:08:05;12.90;;;10.30;;
62927;SDS011;51070;52.236;-0.892;2022-07-23T07:10:31;15.40;;;11.30;;
62927;SDS011;51070;52.236;-0.892;2022-07-23T07:12:57;15.20;;;11.00;;
62927;SDS011;51070;52.236;-0.892;2022-07-23T07:15:22;14.00;;;9.90;;
62927;SDS011;51070;52.236;-0.892;2022-07-23T07:17:48;11.60;;;8.70;;
62927;SDS011;51070;52.236;-0.892;2022-07-23T07:20:14;18.00;;;9.60;;
62927;SDS011;51070;52.236;-0.892;2022-07-23T07:22:39;11.40;;;8.60;;
62927;SDS011;51070;52.236;-0.892;2022-07-23T07:25:05;11.00;;;8.30;;
62927;SDS011;51070;52.236;-0.892;2022-07-23T07:27:31;16.20;;;9.00;;
62927;SDS011;51070;52.236;-0.892;2022-07-23T07:29:57;13.40;;;8.60;;
62927;SDS011;51070;52.236;-0.892;2022-07-23T07:32:22;11.70;;;8.40;;
62927;SDS011;51070;52.236;-0.892;2022-07-23T07:34:48;12.80;;;8.90;;
62927;SDS011;51070;52.236;-0.892;2022-07-23T07:37:13;16.10;;;8.80;;
62927;SDS011;51070;52.236;-0.892;2022-07-23T07:39:38;13.80;;;8.10;;
62927;SDS011;51070;52.236;-0.892;2022-07-23T07:42:04;13.10;;;8.90;;
62927;SDS011;51070;52.236;-0.892;2022-07-23T07:44:30;11.50;;;7.80;;
62927;SDS011;51070;52.236;-0.892;2022-07-23T07:46:55;9.10;;;6.70;;
62927;SDS011;51070;52.236;-0.892;2022-07-23T07:49:20;10.60;;;6.90;;
62927;SDS011;51070;52.236;-0.892;2022-07-23T07:51:46;10.10;;;6.40;;
62927;SDS011;51070;52.236;-0.892;2022-07-23T07:54:12;9.20;;;6.30;;
62927;SDS011;51070;52.236;-0.892;2022-07-23T07:56:38;8.50;;;5.80;;
62927;SDS011;51070;52.236;-0.892;2022-07-23T07:59:03;8.70;;;6.00;;
62927;SDS011;51070;52.236;-0.892;2022-07-23T08:01:29;7.30;;;6.00;;
62927;SDS011;51070;52.236;-0.892;2022-07-23T08:03:55;9.30;;;6.40;;
62927;SDS011;51070;52.236;-0.892;2022-07-23T08:06:20;7.30;;;5.50;;
62927;SDS011;51070;52.236;-0.892;2022-07-23T08:08:46;6.00;;;5.30;;
62927;SDS011;51070;52.236;-0.892;2022-07-23T08:11:11;8.60;;;5.60;;
62927;SDS011;51070;52.236;-0.892;2022-07-23T08:13:37;8.60;;;5.50;;
62927;SDS011;51070;52.236;-0.892;2022-07-23T08:16:02;11.30;;;5.60;;
62927;SDS011;51070;52.236;-0.892;2022-07-23T08:18:28;8.80;;;5.80;;
62927;SDS011;51070;52.236;-0.892;2022-07-23T08:20:54;8.10;;;5.20;;
62927;SDS011;51070;52.236;-0.892;2022-07-23T08:23:19;6.70;;;5.10;;
62927;SDS011;51070;52.236;-0.892;2022-07-23T08:25:46;7.50;;;5.20;;
62927;SDS011;51070;52.236;-0.892;2022-07-23T08:28:12;10.60;;;5.20;;
62927;SDS011;51070;52.236;-0.892;2022-07-23T08:30:40;7.60;;;5.20;;
62927;SDS011;51070;52.236;-0.892;2022-07-23T08:33:09;5.80;;;4.50;;
62927;SDS011;51070;52.236;-0.892;2022-07-23T08:35:39;8.20;;;5.20;;
62927;SDS011;51070;52.236;-0.892;2022-07-23T08:38:12;6.50;;;4.00;;
62927;SDS011;51070;52.236;-0.892;2022-07-23T08:40:43;6.10;;;4.70;;
62927;SDS011;51070;52.236;-0.892;2022-07-23T08:43:13;6.30;;;5.00;;
62927;SDS011;51070;52.236;-0.892;2022-07-23T08:45:44;5.00;;;4.40;;
62927;SDS011;51070;52.236;-0.892;2022-07-23T08:50:38;4.80;;;3.50;;
62927;SDS011;51070;52.236;-0.892;2022-07-23T08:53:08;5.30;;;3.50;;
62927;SDS011;51070;52.236;-0.892;2022-07-23T08:55:34;5.50;;;3.70;;
62927;SDS011;51070;52.236;-0.892;2022-07-23T08:58:00;4.30;;;3.40;;
62927;SDS011;51070;52.236;-0.892;2022-07-23T09:00:26;6.80;;;4.00;;
62927;SDS011;51070;52.236;-0.892;2022-07-23T09:02:52;5.40;;;3.90;;
62927;SDS011;51070;52.236;-0.892;2022-07-23T09:05:18;6.80;;;4.20;;
62927;SDS011;51070;52.236;-0.892;2022-07-23T09:15:51;4.50;;;3.20;;
62927;SDS011;51070;52.236;-0.892;2022-07-23T09:18:17;5.40;;;3.30;;
62927;SDS011;51070;52.236;-0.892;2022-07-23T09:20:46;4.10;;;2.80;;
62927;SDS011;51070;52.236;-0.892;2022-07-23T09:23:11;5.00;;;3.20;;
62927;SDS011;51070;52.236;-0.892;2022-07-23T09:25:37;6.30;;;2.90;;
62927;SDS011;51070;52.236;-0.892;2022-07-23T09:28:02;4.40;;;2.90;;
62927;SDS011;51070;52.236;-0.892;2022-07-23T09:30:29;3.50;;;2.80;;
62927;SDS011;51070;52.236;-0.892;2022-07-23T09:35:49;5.80;;;3.00;;
62927;SDS011;51070;52.236;-0.892;2022-07-23T09:38:15;4.30;;;2.80;;
62927;SDS011;51070;52.236;-0.892;2022-07-23T09:40:42;5.30;;;2.30;;
62927;SDS011;51070;52.236;-0.892;2022-07-23T09:43:08;4.50;;;2.60;;
62927;SDS011;51070;52.236;-0.892;2022-07-23T09:45:34;5.50;;;2.40;;
62927;SDS011;51070;52.236;-0.892;2022-07-23T09:48:10;4.80;;;2.50;;
62927;SDS011;51070;52.236;-0.892;2022-07-23T09:50:37;3.90;;;2.10;;
62927;SDS011;51070;52.236;-0.892;2022-07-23T09:53:02;3.20;;;2.40;;
62927;SDS011;51070;52.236;-0.892;2022-07-23T09:55:34;4.80;;;2.30;;
62927;SDS011;51070;52.236;-0.892;2022-07-23T09:58:03;2.60;;;2.10;;
62927;SDS011;51070;52.236;-0.892;2022-07-23T10:00:32;5.20;;;2.40;;
62927;SDS011;51070;52.236;-0.892;2022-07-23T10:02:58;5.20;;;2.20;;
62927;SDS011;51070;52.236;-0.892;2022-07-23T10:05:24;6.70;;;2.80;;
62927;SDS011;51070;52.236;-0.892;2022-07-23T10:07:50;6.50;;;2.80;;
62927;SDS011;51070;52.236;-0.892;2022-07-23T10:10:18;3.70;;;1.90;;
62927;SDS011;51070;52.236;-0.892;2022-07-23T10:12:47;3.90;;;2.50;;
62927;SDS011;51070;52.236;-0.892;2022-07-23T10:15:13;3.20;;;2.30;;
62927;SDS011;51070;52.236;-0.892;2022-07-23T10:17:38;2.20;;;2.00;;
62927;SDS011;51070;52.236;-0.892;2022-07-23T10:20:04;4.20;;;2.40;;
62927;SDS011;51070;52.236;-0.892;2022-07-23T10:22:34;3.00;;;2.20;;
62927;SDS011;51070;52.236;-0.892;2022-07-23T10:35:56;4.30;;;2.50;;
62927;SDS011;51070;52.236;-0.892;2022-07-23T10:41:51;4.00;;;2.00;;
62927;SDS011;51070;52.236;-0.892;2022-07-23T10:44:20;4.20;;;2.60;;
62927;SDS011;51070;52.236;-0.892;2022-07-23T10:49:40;3.20;;;2.10;;
62927;SDS011;51070;52.236;-0.892;2022-07-23T10:52:23;4.40;;;2.10;;
62927;SDS011;51070;52.236;-0.892;2022-07-23T10:57:47;2.80;;;1.80;;
62927;SDS011;51070;52.236;-0.892;2022-07-23T11:00:14;3.30;;;1.80;;
62927;SDS011;51070;52.236;-0.892;2022-07-23T11:02:46;3.00;;;2.30;;
62927;SDS011;51070;52.236;-0.892;2022-07-23T11:05:14;3.40;;;2.00;;
62927;SDS011;51070;52.236;-0.892;2022-07-23T11:19:15;2.50;;;1.70;;
62927;SDS011;51070;52.236;-0.892;2022-07-23T11:31:54;1.50;;;1.40;;
62927;SDS011;51070;52.236;-0.892;2022-07-23T11:35:06;1.80;;;1.30;;
62927;SDS011;51070;52.236;-0.892;2022-07-23T11:37:27;2.10;;;1.50;;
62927;SDS011;51070;52.236;-0.892;2022-07-23T11:39:55;2.80;;;1.80;;
62927;SDS011;51070;52.236;-0.892;2022-07-23T11:42:22;2.30;;;1.60;;
62927;SDS011;51070;52.236;-0.892;2022-07-23T11:44:49;4.30;;;2.10;;
62927;SDS011;51070;52.236;-0.892;2022-07-23T11:47:20;4.30;;;1.60;;
62927;SDS011;51070;52.236;-0.892;2022-07-23T11:52:19;3.00;;;1.50;;
62927;SDS011;51070;52.236;-0.892;2022-07-23T11:54:52;2.30;;;1.50;;
62927;SDS011;51070;52.236;-0.892;2022-07-23T11:57:21;3.40;;;1.60;;
62927;SDS011;51070;52.236;-0.892;2022-07-23T11:59:54;2.80;;;1.70;;
62927;SDS011;51070;52.236;-0.892;2022-07-23T12:02:22;2.20;;;1.80;;
62927;SDS011;51070;52.236;-0.892;2022-07-23T12:04:50;3.80;;;1.70;;
62927;SDS011;51070;52.236;-0.892;2022-07-23T12:07:36;1.90;;;1.50;;
62927;SDS011;51070;52.236;-0.892;2022-07-23T12:10:10;4.10;;;1.80;;
62927;SDS011;51070;52.236;-0.892;2022-07-23T12:12:41;1.90;;;1.60;;
62927;SDS011;51070;52.236;-0.892;2022-07-23T12:15:10;4.00;;;1.80;;
62927;SDS011;51070;52.236;-0.892;2022-07-23T12:17:37;3.30;;;1.80;;
62927;SDS011;51070;52.236;-0.892;2022-07-23T12:20:05;6.10;;;1.70;;
62927;SDS011;51070;52.236;-0.892;2022-07-23T12:22:34;2.70;;;1.50;;
62927;SDS011;51070;52.236;-0.892;2022-07-23T12:25:03;3.10;;;1.90;;
62927;SDS011;51070;52.236;-0.892;2022-07-23T12:27:34;1.90;;;1.40;;
62927;SDS011;51070;52.236;-0.892;2022-07-23T12:32:48;1.90;;;1.10;;
62927;SDS011;51070;52.236;-0.892;2022-07-23T12:35:15;1.90;;;1.50;;
62927;SDS011;51070;52.236;-0.892;2022-07-23T12:37:42;1.70;;;1.20;;
62927;SDS011;51070;52.236;-0.892;2022-07-23T12:40:19;1.70;;;1.30;;
62927;SDS011;51070;52.236;-0.892;2022-07-23T12:42:47;1.90;;;1.40;;
62927;SDS011;51070;52.236;-0.892;2022-07-23T12:45:14;1.40;;;1.10;;
62927;SDS011;51070;52.236;-0.892;2022-07-23T12:47:56;1.10;;;1.00;;
62927;SDS011;51070;52.236;-0.892;2022-07-23T12:55:37;1.30;;;1.10;;
62927;SDS011;51070;52.236;-0.892;2022-07-23T12:58:22;1.80;;;1.20;;
62927;SDS011;51070;52.236;-0.892;2022-07-23T13:03:22;1.30;;;1.00;;
62927;SDS011;51070;52.236;-0.892;2022-07-23T13:05:54;2.70;;;1.20;;
62927;SDS011;51070;52.236;-0.892;2022-07-23T13:08:20;1.80;;;1.30;;
62927;SDS011;51070;52.236;-0.892;2022-07-23T13:10:47;1.00;;;1.00;;
62927;SDS011;51070;52.236;-0.892;2022-07-23T13:13:14;1.80;;;0.90;;
62927;SDS011;51070;52.236;-0.892;2022-07-23T13:15:41;4.20;;;1.40;;
62927;SDS011;51070;52.236;-0.892;2022-07-23T13:18:08;1.50;;;0.90;;
62927;SDS011;51070;52.236;-0.892;2022-07-23T13:20:34;1.70;;;1.10;;
62927;SDS011;51070;52.236;-0.892;2022-07-23T13:23:00;1.80;;;1.00;;
62927;SDS011;51070;52.236;-0.892;2022-07-23T13:25:26;1.90;;;1.10;;
62927;SDS011;51070;52.236;-0.892;2022-07-23T13:27:52;3.20;;;1.20;;
62927;SDS011;51070;52.236;-0.892;2022-07-23T13:30:18;1.40;;;0.90;;
62927;SDS011;51070;52.236;-0.892;2022-07-23T13:32:43;1.10;;;1.00;;
62927;SDS011;51070;52.236;-0.892;2022-07-23T13:35:09;2.10;;;1.00;;
62927;SDS011;51070;52.236;-0.892;2022-07-23T13:37:34;1.30;;;1.00;;
62927;SDS011;51070;52.236;-0.892;2022-07-23T13:40:00;2.70;;;1.30;;
62927;SDS011;51070;52.236;-0.892;2022-07-23T13:42:26;1.80;;;0.90;;
62927;SDS011;51070;52.236;-0.892;2022-07-23T13:44:52;2.70;;;1.30;;
62927;SDS011;51070;52.236;-0.892;2022-07-23T13:47:18;2.10;;;1.00;;
62927;SDS011;51070;52.236;-0.892;2022-07-23T13:49:43;3.70;;;1.10;;
62927;SDS011;51070;52.236;-0.892;2022-07-23T13:52:09;1.10;;;0.80;;
62927;SDS011;51070;52.236;-0.892;2022-07-23T13:54:35;2.60;;;1.10;;
62927;SDS011;51070;52.236;-0.892;2022-07-23T13:57:01;1.10;;;0.80;;
62927;SDS011;51070;52.236;-0.892;2022-07-23T13:59:26;2.60;;;1.00;;
62927;SDS011;51070;52.236;-0.892;2022-07-23T14:01:52;0.50;;;0.50;;
62927;SDS011;51070;52.236;-0.892;2022-07-23T14:04:18;1.00;;;0.80;;
62927;SDS011;51070;52.236;-0.892;2022-07-23T14:06:43;1.20;;;0.80;;
62927;SDS011;51070;52.236;-0.892;2022-07-23T14:09:08;1.10;;;0.80;;
62927;SDS011;51070;52.236;-0.892;2022-07-23T14:11:34;1.10;;;0.90;;
62927;SDS011;51070;52.236;-0.892;2022-07-23T14:14:00;1.50;;;0.80;;
62927;SDS011;51070;52.236;-0.892;2022-07-23T14:16:26;1.50;;;0.90;;
62927;SDS011;51070;52.236;-0.892;2022-07-23T14:18:51;0.80;;;0.80;;
62927;SDS011;51070;52.236;-0.892;2022-07-23T14:21:17;1.10;;;0.80;;
62927;SDS011;51070;52.236;-0.892;2022-07-23T14:23:42;3.50;;;0.80;;
62927;SDS011;51070;52.236;-0.892;2022-07-23T14:26:08;0.90;;;0.80;;
62927;SDS011;51070;52.236;-0.892;2022-07-23T14:28:33;1.30;;;0.90;;
62927;SDS011;51070;52.236;-0.892;2022-07-23T14:30:59;1.10;;;1.00;;
62927;SDS011;51070;52.236;-0.892;2022-07-23T14:33:25;1.90;;;1.00;;
62927;SDS011;51070;52.236;-0.892;2022-07-23T14:35:51;1.50;;;0.90;;
62927;SDS011;51070;52.236;-0.892;2022-07-23T14:38:16;2.00;;;0.80;;
62927;SDS011;51070;52.236;-0.892;2022-07-23T14:40:42;1.00;;;0.70;;
62927;SDS011;51070;52.236;-0.892;2022-07-23T14:43:07;1.00;;;0.90;;
62927;SDS011;51070;52.236;-0.892;2022-07-23T14:45:33;2.70;;;0.90;;
62927;SDS011;51070;52.236;-0.892;2022-07-23T14:47:59;1.20;;;0.90;;
62927;SDS011;51070;52.236;-0.892;2022-07-23T14:50:25;0.70;;;0.70;;
62927;SDS011;51070;52.236;-0.892;2022-07-23T14:52:50;1.10;;;1.00;;
62927;SDS011;51070;52.236;-0.892;2022-07-23T14:55:16;1.00;;;0.90;;
62927;SDS011;51070;52.236;-0.892;2022-07-23T14:57:43;1.60;;;0.90;;
62927;SDS011;51070;52.236;-0.892;2022-07-23T15:00:09;1.50;;;0.90;;
62927;SDS011;51070;52.236;-0.892;2022-07-23T15:02:35;2.00;;;1.00;;
62927;SDS011;51070;52.236;-0.892;2022-07-23T15:05:01;1.40;;;1.10;;
62927;SDS011;51070;52.236;-0.892;2022-07-23T15:07:28;3.50;;;1.20;;
62927;SDS011;51070;52.236;-0.892;2022-07-23T15:09:55;1.80;;;1.20;;
62927;SDS011;51070;52.236;-0.892;2022-07-23T15:12:22;1.30;;;1.20;;
62927;SDS011;51070;52.236;-0.892;2022-07-23T15:14:48;1.60;;;1.30;;
62927;SDS011;51070;52.236;-0.892;2022-07-23T15:17:14;1.90;;;1.20;;
62927;SDS011;51070;52.236;-0.892;2022-07-23T15:19:40;1.60;;;1.20;;
62927;SDS011;51070;52.236;-0.892;2022-07-23T15:22:05;1.30;;;1.10;;
62927;SDS011;51070;52.236;-0.892;2022-07-23T15:24:30;1.50;;;1.10;;
62927;SDS011;51070;52.236;-0.892;2022-07-23T15:26:56;1.50;;;1.00;;
62927;SDS011;51070;52.236;-0.892;2022-07-23T15:29:22;1.10;;;1.00;;
62927;SDS011;51070;52.236;-0.892;2022-07-23T15:31:48;1.00;;;0.90;;
62927;SDS011;51070;52.236;-0.892;2022-07-23T15:34:14;2.60;;;1.10;;
62927;SDS011;51070;52.236;-0.892;2022-07-23T15:36:39;1.50;;;1.00;;